sensor_id;sensor_type;location;lat;lon;timestamp;pressure;altitude;pressure_sealevel;temperature;humidity
60465;BME280;46314;52.392;9.758;2023-05-03T00:01:17;102116.03;;;8.14;61.55
60465;BME280;46314;52.392;9.758;2023-05-03T00:03:43;102127.00;;;8.26;61.10
60465;BME280;46314;52.392;9.758;2023-05-03T00:06:10;102119.38;;;8.17;61.41
60465;BME280;46314;52.392;9.758;2023-05-03T00:08:37;102124.22;;;8.09;61.40
60465;BME280;46314;52.392;9.758;2023-05-03T00:11:05;102121.72;;;8.25;61.67
60465;BME280;46314;52.392;9.758;2023-05-03T00:13:32;102124.72;;;8.06;62.42
60465;BME280;46314;52.392;9.758;2023-05-03T00:15:58;102122.84;;;7.95;62.67
60465;BME280;46314;52.392;9.758;2023-05-03T00:18:24;102119.22;;;7.77;62.65
60465;BME280;46314;52.392;9.758;2023-05-03T00:20:51;102123.19;;;7.99;62.20
60465;BME280;46314;52.392;9.758;2023-05-03T00:23:17;102109.91;;;7.84;61.96
60465;BME280;46314;52.392;9.758;2023-05-03T00:25:44;102117.38;;;7.83;62.48
60465;BME280;46314;52.392;9.758;2023-05-03T00:28:11;102120.78;;;8.02;62.06
60465;BME280;46314;52.392;9.758;2023-05-03T00:30:38;102122.63;;;7.56;63.56
60465;BME280;46314;52.392;9.758;2023-05-03T00:33:04;102123.41;;;7.39;64.31
60465;BME280;46314;52.392;9.758;2023-05-03T00:35:31;102123.31;;;7.63;64.18
60465;BME280;46314;52.392;9.758;2023-05-03T00:37:57;102119.41;;;6.95;65.51
60465;BME280;46314;52.392;9.758;2023-05-03T00:40:23;102121.00;;;7.43;64.91
60465;BME280;46314;52.392;9.758;2023-05-03T00:42:50;102124.81;;;7.54;64.56
60465;BME280;46314;52.392;9.758;2023-05-03T00:45:18;102122.72;;;7.61;64.10
60465;BME280;46314;52.392;9.758;2023-05-03T00:47:45;102125.00;;;7.64;64.03
60465;BME280;46314;52.392;9.758;2023-05-03T00:50:11;102121.06;;;7.60;63.85
60465;BME280;46314;52.392;9.758;2023-05-03T00:52:38;102117.19;;;7.73;64.43
60465;BME280;46314;52.392;9.758;2023-05-03T00:55:06;102115.72;;;7.42;64.48
60465;BME280;46314;52.392;9.758;2023-05-03T00:57:33;102113.38;;;7.22;65.41
60465;BME280;46314;52.392;9.758;2023-05-03T01:00:00;102116.84;;;7.17;66.06
60465;BME280;46314;52.392;9.758;2023-05-03T01:02:28;102110.78;;;7.44;65.12
60465;BME280;46314;52.392;9.758;2023-05-03T01:04:55;102116.81;;;7.41;65.43
60465;BME280;46314;52.392;9.758;2023-05-03T01:07:27;102113.44;;;7.38;65.43
60465;BME280;46314;52.392;9.758;2023-05-03T01:10:02;102113.13;;;7.23;65.55
60465;BME280;46314;52.392;9.758;2023-05-03T01:12:38;102114.44;;;7.32;65.70
60465;BME280;46314;52.392;9.758;2023-05-03T01:15:13;102112.59;;;7.38;66.23
60465;BME280;46314;52.392;9.758;2023-05-03T01:17:47;102115.91;;;7.23;66.71
60465;BME280;46314;52.392;9.758;2023-05-03T01:20:16;102121.91;;;7.61;65.48
60465;BME280;46314;52.392;9.758;2023-05-03T01:22:47;102118.81;;;7.45;64.66
60465;BME280;46314;52.392;9.758;2023-05-03T01:25:17;102127.09;;;7.57;64.51
60465;BME280;46314;52.392;9.758;2023-05-03T01:27:43;102115.13;;;7.39;64.57
60465;BME280;46314;52.392;9.758;2023-05-03T01:30:11;102121.38;;;7.35;65.56
60465;BME280;46314;52.392;9.758;2023-05-03T01:32:46;102122.19;;;7.47;64.79
60465;BME280;46314;52.392;9.758;2023-05-03T01:35:21;102117.75;;;7.46;64.81
60465;BME280;46314;52.392;9.758;2023-05-03T01:37:48;102120.78;;;7.33;65.09
60465;BME280;46314;52.392;9.758;2023-05-03T01:40:17;102124.13;;;7.35;65.39
60465;BME280;46314;52.392;9.758;2023-05-03T01:42:46;102123.63;;;7.50;65.05
60465;BME280;46314;52.392;9.758;2023-05-03T01:45:13;102117.56;;;7.24;66.08
60465;BME280;46314;52.392;9.758;2023-05-03T01:47:40;102125.47;;;7.20;66.47
60465;BME280;46314;52.392;9.758;2023-05-03T01:50:07;102129.81;;;7.16;66.34
60465;BME280;46314;52.392;9.758;2023-05-03T01:52:33;102122.22;;;7.35;65.48
60465;BME280;46314;52.392;9.758;2023-05-03T01:55:00;102127.53;;;7.25;66.23
60465;BME280;46314;52.392;9.758;2023-05-03T01:57:28;102134.34;;;7.23;65.92
60465;BME280;46314;52.392;9.758;2023-05-03T01:59:54;102130.69;;;7.46;65.40
60465;BME280;46314;52.392;9.758;2023-05-03T02:02:20;102133.75;;;7.32;65.79
60465;BME280;46314;52.392;9.758;2023-05-03T02:04:47;102129.34;;;7.08;66.19
60465;BME280;46314;52.392;9.758;2023-05-03T02:07:13;102136.31;;;7.51;65.19
60465;BME280;46314;52.392;9.758;2023-05-03T02:09:40;102139.41;;;7.14;66.05
60465;BME280;46314;52.392;9.758;2023-05-03T02:12:06;102139.53;;;6.83;67.78
60465;BME280;46314;52.392;9.758;2023-05-03T02:14:34;102140.09;;;7.21;66.05
60465;BME280;46314;52.392;9.758;2023-05-03T02:17:01;102142.97;;;7.26;65.77
60465;BME280;46314;52.392;9.758;2023-05-03T02:19:27;102148.19;;;7.11;65.56
60465;BME280;46314;52.392;9.758;2023-05-03T02:21:55;102149.72;;;6.71;67.26
60465;BME280;46314;52.392;9.758;2023-05-03T02:24:21;102153.34;;;6.83;66.90
60465;BME280;46314;52.392;9.758;2023-05-03T02:26:47;102156.09;;;7.07;66.27
60465;BME280;46314;52.392;9.758;2023-05-03T02:29:14;102148.56;;;6.79;66.83
60465;BME280;46314;52.392;9.758;2023-05-03T02:31:42;102157.53;;;7.10;66.00
60465;BME280;46314;52.392;9.758;2023-05-03T02:34:08;102149.38;;;7.15;66.10
60465;BME280;46314;52.392;9.758;2023-05-03T02:36:34;102157.44;;;6.81;66.68
60465;BME280;46314;52.392;9.758;2023-05-03T02:39:01;102166.03;;;6.49;68.32
60465;BME280;46314;52.392;9.758;2023-05-03T02:41:27;102164.72;;;6.75;66.81
60465;BME280;46314;52.392;9.758;2023-05-03T02:43:54;102164.63;;;6.70;67.05
60465;BME280;46314;52.392;9.758;2023-05-03T02:46:20;102162.03;;;6.45;68.31
60465;BME280;46314;52.392;9.758;2023-05-03T02:48:48;102158.38;;;6.75;67.22
60465;BME280;46314;52.392;9.758;2023-05-03T02:51:14;102165.31;;;6.89;66.83
60465;BME280;46314;52.392;9.758;2023-05-03T02:53:40;102166.88;;;6.85;66.78
60465;BME280;46314;52.392;9.758;2023-05-03T02:56:07;102174.31;;;7.08;66.86
60465;BME280;46314;52.392;9.758;2023-05-03T02:58:33;102165.31;;;6.89;66.70
60465;BME280;46314;52.392;9.758;2023-05-03T03:01:00;102172.63;;;6.60;67.57
60465;BME280;46314;52.392;9.758;2023-05-03T03:03:26;102174.09;;;6.74;67.40
60465;BME280;46314;52.392;9.758;2023-05-03T03:05:54;102170.47;;;6.86;67.76
60465;BME280;46314;52.392;9.758;2023-05-03T03:08:21;102169.88;;;6.60;67.94
60465;BME280;46314;52.392;9.758;2023-05-03T03:10:47;102168.22;;;6.71;67.71
60465;BME280;46314;52.392;9.758;2023-05-03T03:13:14;102168.69;;;6.79;67.75
60465;BME280;46314;52.392;9.758;2023-05-03T03:15:41;102167.84;;;6.67;67.78
60465;BME280;46314;52.392;9.758;2023-05-03T03:18:07;102165.78;;;6.62;68.37
60465;BME280;46314;52.392;9.758;2023-05-03T03:20:34;102173.81;;;6.64;68.27
60465;BME280;46314;52.392;9.758;2023-05-03T03:23:01;102169.13;;;6.64;68.46
60465;BME280;46314;52.392;9.758;2023-05-03T03:25:28;102165.09;;;6.79;67.81
60465;BME280;46314;52.392;9.758;2023-05-03T03:27:54;102164.59;;;6.58;68.33
60465;BME280;46314;52.392;9.758;2023-05-03T03:30:21;102168.34;;;6.76;68.07
60465;BME280;46314;52.392;9.758;2023-05-03T03:32:47;102172.94;;;6.40;69.08
60465;BME280;46314;52.392;9.758;2023-05-03T03:35:14;102173.56;;;6.54;68.64
60465;BME280;46314;52.392;9.758;2023-05-03T03:37:40;102165.59;;;6.22;69.72
60465;BME280;46314;52.392;9.758;2023-05-03T03:40:09;102168.16;;;6.35;68.99
60465;BME280;46314;52.392;9.758;2023-05-03T03:42:36;102172.91;;;6.28;69.28
60465;BME280;46314;52.392;9.758;2023-05-03T03:45:03;102162.94;;;6.69;68.77
60465;BME280;46314;52.392;9.758;2023-05-03T03:47:30;102156.56;;;6.80;68.49
60465;BME280;46314;52.392;9.758;2023-05-03T03:49:58;102164.25;;;6.78;67.92
60465;BME280;46314;52.392;9.758;2023-05-03T03:52:24;102165.44;;;6.59;68.95
60465;BME280;46314;52.392;9.758;2023-05-03T03:54:51;102167.47;;;6.63;68.50
60465;BME280;46314;52.392;9.758;2023-05-03T03:57:19;102167.41;;;6.40;69.40
60465;BME280;46314;52.392;9.758;2023-05-03T03:59:45;102163.13;;;6.56;69.01
60465;BME280;46314;52.392;9.758;2023-05-03T04:02:12;102166.53;;;6.81;68.54
60465;BME280;46314;52.392;9.758;2023-05-03T04:04:38;102164.84;;;6.69;68.50
60465;BME280;46314;52.392;9.758;2023-05-03T04:07:04;102162.59;;;6.77;68.21
60465;BME280;46314;52.392;9.758;2023-05-03T04:09:31;102162.69;;;7.06;68.05
60465;BME280;46314;52.392;9.758;2023-05-03T04:11:57;102163.66;;;6.88;68.10
60465;BME280;46314;52.392;9.758;2023-05-03T04:14:25;102160.63;;;6.66;68.93
60465;BME280;46314;52.392;9.758;2023-05-03T04:16:51;102162.56;;;6.66;69.25
60465;BME280;46314;52.392;9.758;2023-05-03T04:19:18;102150.28;;;6.38;70.10
60465;BME280;46314;52.392;9.758;2023-05-03T04:21:44;102159.69;;;6.60;69.12
60465;BME280;46314;52.392;9.758;2023-05-03T04:24:14;102159.59;;;6.79;68.29
60465;BME280;46314;52.392;9.758;2023-05-03T04:26:40;102160.06;;;6.76;68.07
60465;BME280;46314;52.392;9.758;2023-05-03T04:29:07;102157.28;;;6.99;67.84
60465;BME280;46314;52.392;9.758;2023-05-03T04:31:34;102165.09;;;7.14;67.67
60465;BME280;46314;52.392;9.758;2023-05-03T04:34:01;102164.75;;;7.11;68.03
60465;BME280;46314;52.392;9.758;2023-05-03T04:36:27;102167.59;;;6.80;68.34
60465;BME280;46314;52.392;9.758;2023-05-03T04:38:54;102173.13;;;6.80;68.58
60465;BME280;46314;52.392;9.758;2023-05-03T04:41:20;102162.44;;;6.84;68.58
60465;BME280;46314;52.392;9.758;2023-05-03T04:43:47;102169.66;;;6.97;68.46
60465;BME280;46314;52.392;9.758;2023-05-03T04:46:13;102173.97;;;7.28;67.05
60465;BME280;46314;52.392;9.758;2023-05-03T04:48:41;102178.66;;;7.04;67.59
60465;BME280;46314;52.392;9.758;2023-05-03T04:51:07;102183.66;;;6.72;69.20
60465;BME280;46314;52.392;9.758;2023-05-03T04:53:34;102182.78;;;7.54;66.67
60465;BME280;46314;52.392;9.758;2023-05-03T04:56:02;102183.56;;;7.26;67.56
60465;BME280;46314;52.392;9.758;2023-05-03T04:58:29;102182.25;;;7.28;67.56
60465;BME280;46314;52.392;9.758;2023-05-03T05:00:55;102183.31;;;7.39;67.03
60465;BME280;46314;52.392;9.758;2023-05-03T05:03:21;102184.59;;;7.48;66.72
60465;BME280;46314;52.392;9.758;2023-05-03T05:05:49;102193.00;;;7.30;67.03
60465;BME280;46314;52.392;9.758;2023-05-03T05:08:16;102183.78;;;7.36;67.20
60465;BME280;46314;52.392;9.758;2023-05-03T05:10:42;102191.09;;;7.42;67.00
60465;BME280;46314;52.392;9.758;2023-05-03T05:13:09;102192.53;;;7.56;66.31
60465;BME280;46314;52.392;9.758;2023-05-03T05:15:35;102184.88;;;7.75;65.81
60465;BME280;46314;52.392;9.758;2023-05-03T05:18:02;102189.19;;;7.83;65.52
60465;BME280;46314;52.392;9.758;2023-05-03T05:20:28;102186.66;;;7.93;64.12
60465;BME280;46314;52.392;9.758;2023-05-03T05:22:56;102198.31;;;7.84;64.95
60465;BME280;46314;52.392;9.758;2023-05-03T05:25:22;102195.41;;;7.90;65.18
60465;BME280;46314;52.392;9.758;2023-05-03T05:27:49;102189.50;;;8.27;64.07
60465;BME280;46314;52.392;9.758;2023-05-03T05:30:15;102198.78;;;7.92;63.74
60465;BME280;46314;52.392;9.758;2023-05-03T05:32:42;102198.72;;;8.33;62.65
60465;BME280;46314;52.392;9.758;2023-05-03T05:35:09;102201.41;;;8.57;62.01
60465;BME280;46314;52.392;9.758;2023-05-03T05:37:35;102203.59;;;8.14;63.43
60465;BME280;46314;52.392;9.758;2023-05-03T05:40:04;102207.81;;;8.45;61.77
60465;BME280;46314;52.392;9.758;2023-05-03T05:42:31;102207.34;;;8.20;62.33
60465;BME280;46314;52.392;9.758;2023-05-03T05:44:57;102213.97;;;8.36;62.08
60465;BME280;46314;52.392;9.758;2023-05-03T05:47:24;102216.41;;;8.32;62.79
60465;BME280;46314;52.392;9.758;2023-05-03T05:49:50;102218.13;;;8.67;62.06
60465;BME280;46314;52.392;9.758;2023-05-03T05:52:17;102229.97;;;8.62;61.34
60465;BME280;46314;52.392;9.758;2023-05-03T05:54:43;102220.50;;;8.75;60.96
60465;BME280;46314;52.392;9.758;2023-05-03T05:57:11;102223.75;;;8.72;60.53
60465;BME280;46314;52.392;9.758;2023-05-03T05:59:37;102231.75;;;8.85;60.62
60465;BME280;46314;52.392;9.758;2023-05-03T06:02:05;102222.19;;;8.93;59.50
60465;BME280;46314;52.392;9.758;2023-05-03T06:04:36;102224.31;;;9.42;57.79
60465;BME280;46314;52.392;9.758;2023-05-03T06:07:03;102224.38;;;9.08;59.09
60465;BME280;46314;52.392;9.758;2023-05-03T06:09:29;102228.72;;;8.87;59.04
60465;BME280;46314;52.392;9.758;2023-05-03T06:11:56;102228.53;;;9.27;58.09
60465;BME280;46314;52.392;9.758;2023-05-03T06:14:23;102233.09;;;9.17;58.50
60465;BME280;46314;52.392;9.758;2023-05-03T06:16:50;102237.72;;;9.50;56.43
60465;BME280;46314;52.392;9.758;2023-05-03T06:19:17;102239.03;;;9.64;56.92
60465;BME280;46314;52.392;9.758;2023-05-03T06:21:43;102239.69;;;9.72;56.90
60465;BME280;46314;52.392;9.758;2023-05-03T06:24:09;102244.47;;;9.76;56.67
60465;BME280;46314;52.392;9.758;2023-05-03T06:26:36;102248.56;;;9.74;56.98
60465;BME280;46314;52.392;9.758;2023-05-03T06:29:02;102249.16;;;9.76;57.25
60465;BME280;46314;52.392;9.758;2023-05-03T06:31:30;102252.78;;;9.03;58.42
60465;BME280;46314;52.392;9.758;2023-05-03T06:33:57;102249.88;;;10.10;55.30
60465;BME280;46314;52.392;9.758;2023-05-03T06:36:23;102258.28;;;9.54;56.33
60465;BME280;46314;52.392;9.758;2023-05-03T06:38:50;102258.94;;;8.88;57.92
60465;BME280;46314;52.392;9.758;2023-05-03T06:41:16;102259.84;;;10.11;55.04
60465;BME280;46314;52.392;9.758;2023-05-03T06:43:42;102253.59;;;10.21;54.07
60465;BME280;46314;52.392;9.758;2023-05-03T06:46:09;102256.81;;;10.62;54.05
60465;BME280;46314;52.392;9.758;2023-05-03T06:48:37;102252.13;;;10.35;54.27
60465;BME280;46314;52.392;9.758;2023-05-03T06:51:03;102241.59;;;10.37;53.49
60465;BME280;46314;52.392;9.758;2023-05-03T06:53:29;102254.53;;;9.26;53.92
60465;BME280;46314;52.392;9.758;2023-05-03T06:55:56;102250.34;;;8.73;52.65
60465;BME280;46314;52.392;9.758;2023-05-03T06:58:22;102249.53;;;9.84;50.45
60465;BME280;46314;52.392;9.758;2023-05-03T07:00:51;102245.88;;;10.77;48.86
60465;BME280;46314;52.392;9.758;2023-05-03T07:03:17;102251.88;;;9.15;51.33
60465;BME280;46314;52.392;9.758;2023-05-03T07:05:45;102252.44;;;9.95;50.38
60465;BME280;46314;52.392;9.758;2023-05-03T07:08:11;102247.91;;;10.87;47.38
60465;BME280;46314;52.392;9.758;2023-05-03T07:10:38;102245.41;;;9.65;47.95
60465;BME280;46314;52.392;9.758;2023-05-03T07:13:04;102255.03;;;10.01;47.55
60465;BME280;46314;52.392;9.758;2023-05-03T07:15:30;102254.16;;;10.72;46.21
60465;BME280;46314;52.392;9.758;2023-05-03T07:17:57;102249.97;;;11.87;44.47
60465;BME280;46314;52.392;9.758;2023-05-03T07:20:23;102252.25;;;14.06;39.99
60465;BME280;46314;52.392;9.758;2023-05-03T07:22:51;102236.78;;;14.29;37.49
60465;BME280;46314;52.392;9.758;2023-05-03T07:25:17;102238.97;;;12.18;42.07
60465;BME280;46314;52.392;9.758;2023-05-03T07:27:44;102248.69;;;12.05;42.62
60465;BME280;46314;52.392;9.758;2023-05-03T07:30:10;102249.09;;;12.71;41.34
60465;BME280;46314;52.392;9.758;2023-05-03T07:32:37;102246.63;;;12.95;41.14
60465;BME280;46314;52.392;9.758;2023-05-03T07:35:04;102246.31;;;13.22;40.82
60465;BME280;46314;52.392;9.758;2023-05-03T07:37:31;102248.00;;;13.23;41.07
60465;BME280;46314;52.392;9.758;2023-05-03T07:39:59;102239.28;;;12.27;41.90
60465;BME280;46314;52.392;9.758;2023-05-03T07:42:26;102236.31;;;11.81;42.82
60465;BME280;46314;52.392;9.758;2023-05-03T07:44:52;102233.75;;;15.05;37.55
60465;BME280;46314;52.392;9.758;2023-05-03T07:47:19;102240.06;;;14.86;37.18
60465;BME280;46314;52.392;9.758;2023-05-03T07:49:45;102233.16;;;14.73;36.34
60465;BME280;46314;52.392;9.758;2023-05-03T07:52:11;102239.94;;;12.96;40.15
60465;BME280;46314;52.392;9.758;2023-05-03T07:54:38;102240.09;;;15.93;36.05
60465;BME280;46314;52.392;9.758;2023-05-03T07:57:05;102243.78;;;21.39;27.82
60465;BME280;46314;52.392;9.758;2023-05-03T07:59:32;102233.84;;;23.15;25.45
60465;BME280;46314;52.392;9.758;2023-05-03T08:01:58;102230.16;;;16.63;32.57
60465;BME280;46314;52.392;9.758;2023-05-03T08:04:27;102236.50;;;22.36;25.66
60465;BME280;46314;52.392;9.758;2023-05-03T08:06:54;102222.16;;;21.52;26.60
60465;BME280;46314;52.392;9.758;2023-05-03T08:09:20;102216.41;;;14.73;35.94
60465;BME280;46314;52.392;9.758;2023-05-03T08:11:46;102221.81;;;13.39;38.12
60465;BME280;46314;52.392;9.758;2023-05-03T08:14:14;102216.53;;;13.12;38.71
60465;BME280;46314;52.392;9.758;2023-05-03T08:16:41;102227.19;;;14.46;37.75
60465;BME280;46314;52.392;9.758;2023-05-03T08:19:07;102232.59;;;16.32;35.13
60465;BME280;46314;52.392;9.758;2023-05-03T08:21:33;102227.19;;;13.96;37.86
60465;BME280;46314;52.392;9.758;2023-05-03T08:24:00;102225.72;;;13.07;40.07
60465;BME280;46314;52.392;9.758;2023-05-03T08:26:27;102224.38;;;14.01;37.67
60465;BME280;46314;52.392;9.758;2023-05-03T08:28:53;102231.31;;;12.66;40.41
60465;BME280;46314;52.392;9.758;2023-05-03T08:31:21;102227.72;;;14.92;37.27
60465;BME280;46314;52.392;9.758;2023-05-03T08:33:48;102228.19;;;15.00;37.19
60465;BME280;46314;52.392;9.758;2023-05-03T08:36:14;102225.28;;;14.41;36.96
60465;BME280;46314;52.392;9.758;2023-05-03T08:38:40;102232.06;;;15.86;35.28
60465;BME280;46314;52.392;9.758;2023-05-03T08:41:13;102227.22;;;17.67;32.00
60465;BME280;46314;52.392;9.758;2023-05-03T08:43:43;102221.16;;;14.73;37.48
60465;BME280;46314;52.392;9.758;2023-05-03T08:46:10;102227.50;;;11.99;40.72
60465;BME280;46314;52.392;9.758;2023-05-03T08:48:38;102228.97;;;13.71;38.48
60465;BME280;46314;52.392;9.758;2023-05-03T08:51:07;102229.41;;;17.56;32.07
60465;BME280;46314;52.392;9.758;2023-05-03T08:53:33;102231.44;;;14.38;35.34
60465;BME280;46314;52.392;9.758;2023-05-03T08:56:05;102232.25;;;13.89;37.05
60465;BME280;46314;52.392;9.758;2023-05-03T08:58:33;102230.03;;;14.41;35.96
60465;BME280;46314;52.392;9.758;2023-05-03T09:01:03;102219.72;;;19.53;29.77
60465;BME280;46314;52.392;9.758;2023-05-03T09:03:29;102226.09;;;23.37;24.62
60465;BME280;46314;52.392;9.758;2023-05-03T09:05:57;102225.94;;;15.84;33.39
60465;BME280;46314;52.392;9.758;2023-05-03T09:08:23;102224.31;;;15.25;35.04
60465;BME280;46314;52.392;9.758;2023-05-03T09:10:50;102205.47;;;14.77;36.65
60465;BME280;46314;52.392;9.758;2023-05-03T09:13:16;102213.66;;;17.13;33.35
60465;BME280;46314;52.392;9.758;2023-05-03T09:15:43;102217.50;;;17.17;33.26
60465;BME280;46314;52.392;9.758;2023-05-03T09:18:12;102214.16;;;21.92;26.47
60465;BME280;46314;52.392;9.758;2023-05-03T09:20:39;102207.22;;;24.96;23.58
60465;BME280;46314;52.392;9.758;2023-05-03T09:23:08;102201.94;;;26.25;21.73
60465;BME280;46314;52.392;9.758;2023-05-03T09:25:42;102219.22;;;25.05;22.14
60465;BME280;46314;52.392;9.758;2023-05-03T09:28:09;102212.06;;;22.74;24.33
60465;BME280;46314;52.392;9.758;2023-05-03T09:30:35;102205.13;;;19.42;28.74
60465;BME280;46314;52.392;9.758;2023-05-03T09:33:02;102207.34;;;20.12;28.34
60465;BME280;46314;52.392;9.758;2023-05-03T09:35:28;102204.53;;;18.78;29.83
60465;BME280;46314;52.392;9.758;2023-05-03T09:37:55;102210.16;;;20.12;28.71
60465;BME280;46314;52.392;9.758;2023-05-03T09:40:22;102212.22;;;19.08;29.66
60465;BME280;46314;52.392;9.758;2023-05-03T09:43:05;102215.16;;;17.38;31.36
60465;BME280;46314;52.392;9.758;2023-05-03T09:45:32;102215.28;;;14.30;36.14
60465;BME280;46314;52.392;9.758;2023-05-03T09:48:00;102212.34;;;14.50;36.77
60465;BME280;46314;52.392;9.758;2023-05-03T09:50:27;102211.28;;;15.44;36.47
60465;BME280;46314;52.392;9.758;2023-05-03T09:52:54;102210.59;;;15.28;35.59
60465;BME280;46314;52.392;9.758;2023-05-03T09:55:20;102219.72;;;13.86;37.70
60465;BME280;46314;52.392;9.758;2023-05-03T09:57:48;102210.38;;;13.10;39.08
60465;BME280;46314;52.392;9.758;2023-05-03T10:00:15;102210.94;;;12.61;39.58
60465;BME280;46314;52.392;9.758;2023-05-03T10:02:43;102200.59;;;13.38;38.83
60465;BME280;46314;52.392;9.758;2023-05-03T10:05:10;102196.25;;;14.82;37.13
60465;BME280;46314;52.392;9.758;2023-05-03T10:07:39;102197.72;;;15.32;35.87
60465;BME280;46314;52.392;9.758;2023-05-03T10:10:07;102197.41;;;15.34;35.61
60465;BME280;46314;52.392;9.758;2023-05-03T10:12:34;102205.59;;;15.79;35.79
60465;BME280;46314;52.392;9.758;2023-05-03T10:15:04;102200.88;;;16.36;34.16
60465;BME280;46314;52.392;9.758;2023-05-03T10:17:34;102203.16;;;17.05;33.27
60465;BME280;46314;52.392;9.758;2023-05-03T10:20:16;102193.56;;;14.66;35.43
60465;BME280;46314;52.392;9.758;2023-05-03T10:23:05;102198.38;;;14.16;36.13
60465;BME280;46314;52.392;9.758;2023-05-03T10:25:34;102188.94;;;15.63;35.00
60465;BME280;46314;52.392;9.758;2023-05-03T10:28:00;102182.84;;;16.61;33.78
60465;BME280;46314;52.392;9.758;2023-05-03T10:30:30;102186.81;;;16.41;33.48
60465;BME280;46314;52.392;9.758;2023-05-03T10:32:57;102175.28;;;15.86;35.17
60465;BME280;46314;52.392;9.758;2023-05-03T10:35:25;102182.19;;;16.51;34.00
60465;BME280;46314;52.392;9.758;2023-05-03T10:37:52;102173.09;;;15.59;34.78
60465;BME280;46314;52.392;9.758;2023-05-03T10:40:18;102180.03;;;14.44;35.07
60465;BME280;46314;52.392;9.758;2023-05-03T10:42:53;102183.13;;;14.77;34.45
60465;BME280;46314;52.392;9.758;2023-05-03T10:45:23;102174.41;;;16.09;32.93
60465;BME280;46314;52.392;9.758;2023-05-03T10:48:16;102172.91;;;15.50;34.86
60465;BME280;46314;52.392;9.758;2023-05-03T10:50:43;102171.44;;;15.28;35.18
60465;BME280;46314;52.392;9.758;2023-05-03T10:53:33;102170.63;;;15.28;34.78
60465;BME280;46314;52.392;9.758;2023-05-03T10:56:00;102171.75;;;15.99;34.35
60465;BME280;46314;52.392;9.758;2023-05-03T10:58:27;102165.78;;;16.77;33.28
60465;BME280;46314;52.392;9.758;2023-05-03T11:00:54;102163.97;;;16.67;33.57
60465;BME280;46314;52.392;9.758;2023-05-03T11:03:34;102172.06;;;16.88;33.00
60465;BME280;46314;52.392;9.758;2023-05-03T11:06:05;102159.16;;;16.54;32.79
60465;BME280;46314;52.392;9.758;2023-05-03T11:08:31;102154.66;;;17.05;33.06
60465;BME280;46314;52.392;9.758;2023-05-03T11:10:59;102147.72;;;16.83;33.25
60465;BME280;46314;52.392;9.758;2023-05-03T11:13:26;102152.50;;;17.15;33.00
60465;BME280;46314;52.392;9.758;2023-05-03T11:15:53;102148.94;;;16.96;33.22
60465;BME280;46314;52.392;9.758;2023-05-03T11:18:20;102150.25;;;16.65;33.10
60465;BME280;46314;52.392;9.758;2023-05-03T11:20:48;102146.19;;;15.14;34.97
60465;BME280;46314;52.392;9.758;2023-05-03T11:23:15;102142.78;;;15.90;34.46
60465;BME280;46314;52.392;9.758;2023-05-03T11:25:41;102141.34;;;16.63;35.34
60465;BME280;46314;52.392;9.758;2023-05-03T11:28:08;102133.06;;;15.39;34.70
60465;BME280;46314;52.392;9.758;2023-05-03T11:30:34;102131.97;;;15.35;34.79
60465;BME280;46314;52.392;9.758;2023-05-03T11:33:01;102124.09;;;14.54;35.62
60465;BME280;46314;52.392;9.758;2023-05-03T11:35:28;102136.44;;;14.09;36.62
60465;BME280;46314;52.392;9.758;2023-05-03T11:37:56;102128.31;;;14.86;35.95
60465;BME280;46314;52.392;9.758;2023-05-03T11:40:23;102122.38;;;13.85;37.18
60465;BME280;46314;52.392;9.758;2023-05-03T11:42:50;102121.59;;;14.18;37.50
60465;BME280;46314;52.392;9.758;2023-05-03T11:45:17;102123.09;;;15.52;34.05
60465;BME280;46314;52.392;9.758;2023-05-03T11:47:47;102129.75;;;16.70;33.63
60465;BME280;46314;52.392;9.758;2023-05-03T11:50:14;102121.22;;;15.90;33.80
60465;BME280;46314;52.392;9.758;2023-05-03T11:52:40;102121.75;;;13.93;35.53
60465;BME280;46314;52.392;9.758;2023-05-03T11:55:10;102123.16;;;14.30;35.22
60465;BME280;46314;52.392;9.758;2023-05-03T11:57:37;102129.59;;;15.23;35.96
60465;BME280;46314;52.392;9.758;2023-05-03T12:00:10;102122.03;;;16.29;33.24
60465;BME280;46314;52.392;9.758;2023-05-03T12:02:38;102112.47;;;16.30;32.79
60465;BME280;46314;52.392;9.758;2023-05-03T12:05:05;102116.50;;;16.43;32.67
60465;BME280;46314;52.392;9.758;2023-05-03T12:07:33;102122.25;;;16.98;33.20
60465;BME280;46314;52.392;9.758;2023-05-03T12:10:13;102120.28;;;17.13;31.85
60465;BME280;46314;52.392;9.758;2023-05-03T12:12:53;102123.28;;;16.56;32.86
60465;BME280;46314;52.392;9.758;2023-05-03T12:15:29;102109.56;;;15.59;35.36
60465;BME280;46314;52.392;9.758;2023-05-03T12:18:00;102105.00;;;14.67;36.74
60465;BME280;46314;52.392;9.758;2023-05-03T12:20:30;102095.25;;;16.23;34.42
60465;BME280;46314;52.392;9.758;2023-05-03T12:23:00;102099.03;;;15.08;34.74
60465;BME280;46314;52.392;9.758;2023-05-03T12:25:31;102085.06;;;16.13;35.17
60465;BME280;46314;52.392;9.758;2023-05-03T12:28:02;102088.50;;;16.57;33.56
60465;BME280;46314;52.392;9.758;2023-05-03T12:30:32;102072.72;;;15.09;35.09
60465;BME280;46314;52.392;9.758;2023-05-03T12:32:59;102077.41;;;14.31;36.96
60465;BME280;46314;52.392;9.758;2023-05-03T12:35:30;102076.19;;;14.08;36.95
60465;BME280;46314;52.392;9.758;2023-05-03T12:37:59;102074.09;;;14.58;37.05
60465;BME280;46314;52.392;9.758;2023-05-03T12:40:28;102066.34;;;14.79;36.67
60465;BME280;46314;52.392;9.758;2023-05-03T12:43:02;102060.03;;;15.22;35.88
60465;BME280;46314;52.392;9.758;2023-05-03T12:45:28;102068.00;;;15.09;36.05
60465;BME280;46314;52.392;9.758;2023-05-03T12:47:59;102064.59;;;15.56;35.50
60465;BME280;46314;52.392;9.758;2023-05-03T12:50:26;102061.53;;;14.61;35.88
60465;BME280;46314;52.392;9.758;2023-05-03T12:52:57;102067.56;;;14.97;35.38
60465;BME280;46314;52.392;9.758;2023-05-03T12:55:28;102070.53;;;14.18;36.62
60465;BME280;46314;52.392;9.758;2023-05-03T12:57:56;102067.91;;;15.58;35.41